createdAt,value
2022-12-08T00:01:38.356Z,1.11
2022-12-08T00:07:01.582Z,1.43
2022-12-08T00:12:09.518Z,1.52
2022-12-08T00:17:14.452Z,1.16
2022-12-08T00:22:18.536Z,1.34
2022-12-08T00:27:21.289Z,1.15
2022-12-08T00:32:24.141Z,1.46
2022-12-08T00:37:28.398Z,0.96
2022-12-08T00:42:31.132Z,1.10
2022-12-08T00:47:33.892Z,1.26
2022-12-08T00:52:38.314Z,1.29
2022-12-08T00:57:41.055Z,1.09
2022-12-08T01:02:43.840Z,1.30
2022-12-08T01:07:49.026Z,1.18
2022-12-08T01:12:51.888Z,1.27
2022-12-08T01:17:54.714Z,1.38
2022-12-08T01:22:58.816Z,1.30
2022-12-08T01:28:01.645Z,1.36
2022-12-08T01:33:05.102Z,1.27
2022-12-08T01:38:09.205Z,1.18
2022-12-08T01:43:16.712Z,1.40
2022-12-08T01:48:24.229Z,1.45
2022-12-08T01:53:33.662Z,1.62
2022-12-08T01:58:40.997Z,1.76
2022-12-08T02:03:48.741Z,1.80
2022-12-08T02:08:55.124Z,1.89
2022-12-08T02:13:59.380Z,1.89
2022-12-08T02:19:30.741Z,1.74
2022-12-08T02:24:39.125Z,1.69
2022-12-08T02:30:08.819Z,1.79
2022-12-08T02:35:15.912Z,1.83
2022-12-08T02:40:25.165Z,1.68
2022-12-08T02:45:32.876Z,1.90
2022-12-08T02:50:37.134Z,1.55
2022-12-08T02:55:51.096Z,1.76
2022-12-08T03:01:09.308Z,1.35
2022-12-08T03:06:23.210Z,1.91
2022-12-08T03:11:34.255Z,1.78
2022-12-08T03:16:41.587Z,2.06
2022-12-08T03:21:50.088Z,1.83
2022-12-08T03:26:58.409Z,1.63
2022-12-08T03:32:12.541Z,1.82
2022-12-08T03:37:17.018Z,1.67
2022-12-08T03:42:19.838Z,1.86
2022-12-08T03:47:22.596Z,2.14
2022-12-08T03:52:26.780Z,1.62
2022-12-08T03:57:29.528Z,1.78
2022-12-08T04:02:32.351Z,2.01
2022-12-08T04:07:36.560Z,1.68
2022-12-08T04:12:39.439Z,1.41
2022-12-08T04:17:42.365Z,1.27
2022-12-08T04:22:46.544Z,1.44
2022-12-08T04:27:49.583Z,1.36
2022-12-08T04:32:52.420Z,1.43
2022-12-08T04:37:56.576Z,1.54
2022-12-08T04:42:59.337Z,1.76
2022-12-08T04:48:02.529Z,1.86
2022-12-08T04:53:06.721Z,1.77
2022-12-08T04:58:12.535Z,1.38
2022-12-08T05:03:16.122Z,1.44
2022-12-08T05:08:20.322Z,1.53
2022-12-08T05:13:23.273Z,1.55
2022-12-08T05:18:26.106Z,1.32
2022-12-08T05:23:30.336Z,1.52
2022-12-08T05:28:41.216Z,1.24
2022-12-08T05:33:46.470Z,1.19
2022-12-08T05:38:50.945Z,1.29
2022-12-08T05:43:54.039Z,1.27
2022-12-08T05:48:56.870Z,1.23
2022-12-08T05:54:01.310Z,1.20
2022-12-08T05:59:06.943Z,1.41
2022-12-08T06:04:10.157Z,1.61
2022-12-08T06:09:14.292Z,1.53
2022-12-08T06:14:17.068Z,1.41
2022-12-08T06:19:19.962Z,1.35
2022-12-08T06:24:24.178Z,1.43
2022-12-08T06:29:26.962Z,1.42
2022-12-08T06:34:29.793Z,1.49
2022-12-08T06:39:34.056Z,1.47
2022-12-08T06:44:36.856Z,1.19
2022-12-08T06:49:39.693Z,1.40
2022-12-08T06:54:43.820Z,1.56
2022-12-08T06:59:46.709Z,1.46
2022-12-08T07:04:49.473Z,1.76
2022-12-08T07:09:53.593Z,1.50
2022-12-08T07:14:56.332Z,1.91
2022-12-08T07:19:59.144Z,1.65
2022-12-08T07:25:03.272Z,1.82
2022-12-08T07:30:07.617Z,1.68
2022-12-08T07:35:11.512Z,1.72
2022-12-08T07:40:16.493Z,1.76
2022-12-08T07:45:19.246Z,1.61
2022-12-08T07:50:22.132Z,1.47
2022-12-08T07:55:26.673Z,1.46
2022-12-08T08:00:29.507Z,1.81
2022-12-08T08:05:32.297Z,1.75
2022-12-08T08:10:36.419Z,1.69
2022-12-08T08:15:39.558Z,1.44
2022-12-08T08:20:42.682Z,1.60
2022-12-08T08:25:46.768Z,1.59
2022-12-08T08:30:50.457Z,1.80
2022-12-08T08:35:53.300Z,1.85
2022-12-08T08:40:57.785Z,1.64
2022-12-08T08:46:01.290Z,1.91
2022-12-08T08:51:08.980Z,1.99
2022-12-08T08:56:15.599Z,1.97
2022-12-08T09:01:19.885Z,1.90
2022-12-08T09:06:23.600Z,1.95
2022-12-08T09:11:28.584Z,1.91
2022-12-08T09:16:31.504Z,1.92
2022-12-08T09:21:34.547Z,1.89
2022-12-08T09:26:38.680Z,2.00
2022-12-08T09:31:41.920Z,2.05
2022-12-08T09:36:45.585Z,1.87
2022-12-08T09:41:53.528Z,1.89
2022-12-08T09:46:59.695Z,1.55
2022-12-08T09:52:04.567Z,1.89
2022-12-08T09:57:15.857Z,2.09
2022-12-08T10:02:23.799Z,1.97
2022-12-08T10:07:39.213Z,2.16
2022-12-08T10:12:48.642Z,2.05
2022-12-08T10:17:53.744Z,1.91
2022-12-08T10:23:06.202Z,2.35
2022-12-08T10:28:10.868Z,2.26
2022-12-08T10:33:16.485Z,2.32
2022-12-08T10:38:27.020Z,2.36
2022-12-08T10:43:33.023Z,2.31
2022-12-08T10:48:35.768Z,2.53
2022-12-08T10:53:47.192Z,2.02
2022-12-08T10:59:05.285Z,2.32
2022-12-08T11:04:14.328Z,2.53
2022-12-08T11:09:27.194Z,2.22
2022-12-08T11:14:34.068Z,2.03
2022-12-08T11:19:39.040Z,2.37
2022-12-08T11:24:41.953Z,2.37
2022-12-08T11:29:47.342Z,2.48
2022-12-08T11:34:55.105Z,1.93
2022-12-08T11:40:05.072Z,1.76
2022-12-08T11:45:18.534Z,1.97
2022-12-08T11:50:26.271Z,2.32
2022-12-08T11:55:37.169Z,2.54
2022-12-08T12:00:43.224Z,2.64
2022-12-08T12:11:51.809Z,3.10
2022-12-08T12:17:07.113Z,2.95
2022-12-08T12:22:16.533Z,2.89
2022-12-08T12:27:28.368Z,2.86
2022-12-08T12:32:46.521Z,2.97
2022-12-08T12:37:49.904Z,2.69
2022-12-08T12:43:14.612Z,2.75
2022-12-08T12:48:28.311Z,2.51
2022-12-08T12:53:51.433Z,2.46
2022-12-08T12:58:55.191Z,2.54
2022-12-08T13:04:08.288Z,2.22
2022-12-08T13:09:22.944Z,2.42
2022-12-08T13:14:30.463Z,2.29
2022-12-08T13:19:38.326Z,2.42
2022-12-08T13:24:41.113Z,2.46
2022-12-08T13:29:44.029Z,2.68
2022-12-08T13:34:52.809Z,2.67
2022-12-08T13:40:00.257Z,2.66
2022-12-08T13:45:48.765Z,2.60
2022-12-08T13:52:20.113Z,2.77
2022-12-08T14:01:25.710Z,2.78
2022-12-08T14:06:32.434Z,2.52
2022-12-08T14:11:38.114Z,2.55
2022-12-08T14:16:42.468Z,2.61
2022-12-08T14:22:10.272Z,2.57
2022-12-08T14:27:16.769Z,2.48
2022-12-08T14:32:39.628Z,2.46
2022-12-08T14:37:45.748Z,2.58
2022-12-08T14:42:51.533Z,2.52
2022-12-08T14:47:54.472Z,2.48
2022-12-08T14:52:59.128Z,2.37
2022-12-08T14:58:02.254Z,2.11
2022-12-08T15:03:07.672Z,2.28
2022-12-08T15:08:13.024Z,2.12
2022-12-08T15:13:23.707Z,2.21
2022-12-08T15:18:35.964Z,2.10
2022-12-08T15:23:44.800Z,1.99
2022-12-08T15:28:48.410Z,2.02
2022-12-08T15:33:51.267Z,2.04
2022-12-08T15:38:58.904Z,2.01
2022-12-08T15:44:02.263Z,2.00
2022-12-08T15:49:05.526Z,1.94
2022-12-08T15:54:09.680Z,1.86
2022-12-08T15:59:18.028Z,1.74
2022-12-08T16:05:18.421Z,1.88
2022-12-08T16:09:46.788Z,1.78
2022-12-08T16:20:15.686Z,1.59
2022-12-08T16:25:22.081Z,1.56
2022-12-08T16:30:25.355Z,1.55
2022-12-08T16:35:28.332Z,1.53
2022-12-08T16:40:32.665Z,1.56
2022-12-08T16:45:41.473Z,1.57
2022-12-08T16:50:47.557Z,1.52
2022-12-08T16:55:51.729Z,1.65
2022-12-08T17:00:54.572Z,1.63
2022-12-08T17:05:57.385Z,1.65
2022-12-08T17:11:10.228Z,1.63
2022-12-08T17:16:16.786Z,1.64
2022-12-08T17:21:19.654Z,1.64
2022-12-08T17:26:23.744Z,1.64
2022-12-08T17:31:29.879Z,1.67
2022-12-08T17:36:33.652Z,1.66
2022-12-08T17:41:38.449Z,1.64
2022-12-08T17:46:43.384Z,1.57
2022-12-08T17:51:48.804Z,1.45
2022-12-08T17:56:53.050Z,1.38
2022-12-08T18:01:56.898Z,1.47
2022-12-08T18:07:01.230Z,1.36
2022-12-08T18:12:05.995Z,1.40
2022-12-08T18:17:09.925Z,1.48
2022-12-08T18:22:13.305Z,1.57
2022-12-08T18:27:17.465Z,1.59
2022-12-08T18:32:23.495Z,1.60
2022-12-08T18:37:26.567Z,1.59
2022-12-08T18:42:30.870Z,1.56
2022-12-08T18:47:34.427Z,1.62
2022-12-08T18:52:37.262Z,1.71
2022-12-08T18:57:43.026Z,1.76
2022-12-08T19:02:46.424Z,1.69
2022-12-08T19:07:49.593Z,1.70
2022-12-08T19:12:54.080Z,1.67
2022-12-08T19:17:56.900Z,1.60
2022-12-08T19:22:59.653Z,1.52
2022-12-08T19:28:04.035Z,1.44
2022-12-08T19:33:06.878Z,1.43
2022-12-08T19:38:09.649Z,1.32
2022-12-08T19:43:46.474Z,1.30
2022-12-08T19:48:49.283Z,1.26
2022-12-08T19:53:52.051Z,1.25
2022-12-08T19:58:56.190Z,1.24
2022-12-08T20:03:58.927Z,1.17
2022-12-08T20:09:01.741Z,1.08
2022-12-08T20:14:06.380Z,1.06
2022-12-08T20:19:09.130Z,1.01
2022-12-08T20:24:11.961Z,0.98
2022-12-08T20:29:17.095Z,0.87
2022-12-08T20:34:20.523Z,0.83
2022-12-08T20:39:23.365Z,0.90
2022-12-08T20:44:29.263Z,0.89
2022-12-08T20:49:34.705Z,0.82
2022-12-08T20:54:38.129Z,0.90
2022-12-08T20:59:42.406Z,0.96
2022-12-08T21:04:45.603Z,1.00
2022-12-08T21:09:48.816Z,1.02
2022-12-08T21:14:53.153Z,1.08
2022-12-08T21:19:56.030Z,1.18
2022-12-08T21:24:58.834Z,1.18
2022-12-08T21:30:03.079Z,1.13
2022-12-08T21:35:06.807Z,1.00
2022-12-08T21:40:11.025Z,0.99
2022-12-08T21:45:18.472Z,0.86
2022-12-08T21:50:22.447Z,0.79
2022-12-08T21:55:25.917Z,0.73
2022-12-08T22:00:31.491Z,0.80
2022-12-08T22:05:37.242Z,0.81
2022-12-08T22:10:40.687Z,0.79
2022-12-08T22:15:45.303Z,0.85
2022-12-08T22:20:48.325Z,0.95
2022-12-08T22:25:57.981Z,0.91
2022-12-08T22:31:02.902Z,0.66
2022-12-08T22:36:10.901Z,0.47
2022-12-08T22:41:14.853Z,0.21
2022-12-08T22:46:20.811Z,0.13
2022-12-08T22:51:24.132Z,0.21
2022-12-08T22:56:27.303Z,0.23
2022-12-08T23:01:33.861Z,0.21
2022-12-08T23:06:37.144Z,0.34
2022-12-08T23:11:40.229Z,0.51
2022-12-08T23:16:45.059Z,0.65
2022-12-08T23:21:48.329Z,0.78
2022-12-08T23:26:51.478Z,0.91
2022-12-08T23:31:56.036Z,0.96
2022-12-08T23:36:59.218Z,0.95
2022-12-08T23:42:02.518Z,0.91
2022-12-08T23:47:06.967Z,0.88
2022-12-08T23:52:12.830Z,0.81
2022-12-08T23:57:16.012Z,0.82
